createdAt,value
2022-10-22T00:02:21.956Z,99886.03
2022-10-22T00:05:26.269Z,99895.59
2022-10-22T00:08:30.635Z,99896.56
2022-10-22T00:11:34.273Z,99905.78
2022-10-22T00:14:38.440Z,99881.28
2022-10-22T00:17:42.719Z,99888.81
2022-10-22T00:20:47.294Z,99894.88
2022-10-22T00:23:51.411Z,99898.19
2022-10-22T00:26:55.834Z,99892.91
2022-10-22T00:29:59.791Z,99886.69
2022-10-22T00:33:03.628Z,99891.56
2022-10-22T00:36:08.392Z,99898.63
2022-10-22T00:39:16.036Z,99900.75
2022-10-22T00:42:23.023Z,99918.75
2022-10-22T00:45:27.835Z,99942.31
2022-10-22T00:48:36.139Z,99935.28
2022-10-22T00:51:39.921Z,99919.00
2022-10-22T00:54:43.783Z,99901.97
2022-10-22T00:57:48.557Z,99911.59
2022-10-22T01:00:52.976Z,99909.84
2022-10-22T01:03:57.755Z,99918.84
2022-10-22T01:07:01.642Z,99921.22
2022-10-22T01:10:23.292Z,99917.88
2022-10-22T01:13:45.711Z,99907.50
2022-10-22T01:17:10.338Z,99908.28
2022-10-22T01:20:21.004Z,99910.03
2022-10-22T01:23:52.558Z,99910.66
2022-10-22T01:27:31.591Z,99918.31
2022-10-22T01:30:36.880Z,99903.03
2022-10-22T01:33:43.835Z,99901.25
2022-10-22T01:36:50.366Z,99894.38
2022-10-22T01:39:55.866Z,99901.69
2022-10-22T01:43:02.504Z,99901.69
2022-10-22T01:46:07.179Z,99915.19
2022-10-22T01:49:29.587Z,99920.69
2022-10-22T01:52:55.182Z,99913.84
2022-10-22T01:56:41.005Z,99913.84
2022-10-22T02:00:05.086Z,99910.69
2022-10-22T02:03:21.275Z,99902.22
2022-10-22T02:06:30.622Z,99905.94
2022-10-22T02:09:35.756Z,99897.09
2022-10-22T02:12:42.349Z,99901.63
2022-10-22T02:15:48.976Z,99895.88
2022-10-22T02:18:54.738Z,99895.88
2022-10-22T02:21:58.552Z,99883.34
2022-10-22T02:25:05.078Z,99882.72
2022-10-22T02:28:16.764Z,99881.16
2022-10-22T02:31:28.982Z,99881.56
2022-10-22T02:34:32.661Z,99877.59
2022-10-22T02:37:37.404Z,99861.72
2022-10-22T02:40:42.081Z,99864.25
2022-10-22T02:43:53.206Z,99868.75
2022-10-22T02:46:58.398Z,99871.91
2022-10-22T02:50:05.428Z,99877.00
2022-10-22T02:53:11.907Z,99869.56
2022-10-22T02:56:15.829Z,99876.41
2022-10-22T02:59:19.678Z,99869.72
2022-10-22T03:02:23.276Z,99877.34
2022-10-22T03:05:27.142Z,99878.34
2022-10-22T03:08:31.162Z,99879.53
2022-10-22T03:11:34.854Z,99885.63
2022-10-22T03:14:38.485Z,99893.44
2022-10-22T03:17:42.689Z,99906.38
2022-10-22T03:20:47.106Z,99896.78
2022-10-22T03:23:51.917Z,99890.50
2022-10-22T03:26:56.222Z,99906.97
2022-10-22T03:30:00.260Z,99923.06
2022-10-22T03:33:04.160Z,99920.25
2022-10-22T03:36:09.295Z,99913.00
2022-10-22T03:39:15.007Z,99916.31
2022-10-22T03:42:19.211Z,99920.22
2022-10-22T03:45:22.975Z,99915.72
2022-10-22T03:48:26.796Z,99913.31
2022-10-22T03:51:30.642Z,99921.59
2022-10-22T03:54:35.943Z,99924.13
2022-10-22T03:57:40.340Z,99924.13
2022-10-22T04:00:44.130Z,99924.94
2022-10-22T04:03:47.829Z,99920.47
2022-10-22T04:06:52.015Z,99919.03
2022-10-22T04:09:55.992Z,99916.69
2022-10-22T04:12:59.740Z,99916.09
2022-10-22T04:16:12.750Z,99919.97
2022-10-22T04:19:16.768Z,99915.09
2022-10-22T04:22:20.513Z,99930.16
2022-10-22T04:25:24.294Z,99927.44
2022-10-22T04:28:28.392Z,99927.44
2022-10-22T04:31:32.424Z,99929.97
2022-10-22T04:34:36.093Z,99937.63
2022-10-22T04:37:40.211Z,99939.00
2022-10-22T04:40:44.376Z,99938.81
2022-10-22T04:43:49.241Z,99941.34
2022-10-22T04:46:53.723Z,99940.59
2022-10-22T04:49:57.426Z,99941.34
2022-10-22T04:53:01.431Z,99932.53
2022-10-22T04:56:24.720Z,99929.69
2022-10-22T04:59:28.835Z,99930.72
2022-10-22T05:02:32.781Z,99926.56
2022-10-22T05:05:36.592Z,99927.13
2022-10-22T05:08:41.089Z,99929.69
2022-10-22T05:11:48.470Z,99938.84
2022-10-22T05:14:52.710Z,99933.56
2022-10-22T05:17:56.583Z,99929.41
2022-10-22T05:21:00.641Z,99942.94
2022-10-22T05:24:04.902Z,99933.38
2022-10-22T05:27:09.146Z,99941.63
2022-10-22T05:30:13.436Z,99938.66
2022-10-22T05:33:21.839Z,99958.69
2022-10-22T05:36:28.105Z,99960.03
2022-10-22T05:39:36.528Z,99961.00
2022-10-22T05:42:40.674Z,99963.78
2022-10-22T05:45:44.924Z,99971.19
2022-10-22T05:48:50.395Z,99976.72
2022-10-22T05:51:54.540Z,99977.75
2022-10-22T05:54:58.256Z,99969.94
2022-10-22T05:58:02.132Z,99967.38
2022-10-22T06:01:16.626Z,99969.72
2022-10-22T06:04:20.955Z,99977.19
2022-10-22T06:07:24.701Z,99984.66
2022-10-22T06:10:28.843Z,100003.69
2022-10-22T06:13:32.788Z,100006.84
2022-10-22T06:16:37.257Z,100010.41
2022-10-22T06:19:42.215Z,100015.16
2022-10-22T06:22:48.153Z,100032.38
2022-10-22T06:25:59.441Z,100024.34
2022-10-22T06:29:04.328Z,100029.28
2022-10-22T06:32:08.336Z,100032.25
2022-10-22T06:35:11.996Z,100041.28
2022-10-22T06:38:15.921Z,100031.50
2022-10-22T06:41:20.355Z,100040.94
2022-10-22T06:44:24.944Z,100046.63
2022-10-22T06:47:31.532Z,100049.00
2022-10-22T06:50:35.620Z,100048.44
2022-10-22T06:53:40.695Z,100051.59
2022-10-22T06:56:44.960Z,100057.28
2022-10-22T06:59:48.995Z,100061.06
2022-10-22T07:02:57.585Z,100064.66
2022-10-22T07:06:05.597Z,100076.06
2022-10-22T07:09:09.882Z,100074.69
2022-10-22T07:12:14.020Z,100078.69
2022-10-22T07:15:18.022Z,100086.97
2022-10-22T07:18:22.512Z,100092.50
2022-10-22T07:21:26.351Z,100095.66
2022-10-22T07:24:30.468Z,100104.56
2022-10-22T07:27:34.765Z,100110.28
2022-10-22T07:30:39.844Z,100105.59
2022-10-22T07:33:44.033Z,100110.56
2022-10-22T07:36:48.097Z,100108.44
2022-10-22T07:39:52.361Z,100111.00
2022-10-22T07:42:56.454Z,100118.47
2022-10-22T07:46:02.561Z,100123.59
2022-10-22T07:49:06.455Z,100124.00
2022-10-22T07:52:10.244Z,100121.28
2022-10-22T07:55:14.325Z,100122.81
2022-10-22T07:58:19.065Z,100126.16
2022-10-22T08:01:22.812Z,100129.91
2022-10-22T08:04:26.884Z,100125.59
2022-10-22T08:07:30.861Z,100132.09
2022-10-22T08:10:35.048Z,100133.84
2022-10-22T08:13:44.148Z,100126.75
2022-10-22T08:16:49.807Z,100136.59
2022-10-22T08:19:54.094Z,100141.47
2022-10-22T08:22:58.557Z,100141.69
2022-10-22T08:26:03.049Z,100137.56
2022-10-22T08:29:07.954Z,100138.53
2022-10-22T08:32:12.199Z,100138.91
2022-10-22T08:35:17.693Z,100146.78
2022-10-22T08:38:21.927Z,100141.50
2022-10-22T08:41:26.210Z,100148.97
2022-10-22T08:44:53.945Z,100156.84
2022-10-22T08:48:18.701Z,100154.69
2022-10-22T08:51:32.747Z,100163.72
2022-10-22T08:54:48.377Z,100157.84
2022-10-22T08:58:03.081Z,100168.03
2022-10-22T09:01:16.427Z,100172.78
2022-10-22T09:04:36.415Z,100174.81
2022-10-22T09:07:43.772Z,100167.13
2022-10-22T09:10:57.478Z,100170.47
2022-10-22T09:14:02.827Z,100184.66
2022-10-22T09:17:16.141Z,100183.91
2022-10-22T09:20:45.353Z,100179.59
2022-10-22T09:23:55.693Z,100186.88
2022-10-22T09:27:00.777Z,100190.28
2022-10-22T09:30:05.535Z,100189.88
2022-10-22T09:33:09.328Z,100192.59
2022-10-22T09:36:16.925Z,100187.88
2022-10-22T09:39:26.676Z,100183.94
2022-10-22T09:42:33.201Z,100186.25
2022-10-22T09:45:37.289Z,100184.31
2022-10-22T09:48:43.448Z,100193.38
2022-10-22T09:51:56.263Z,100190.22
2022-10-22T09:55:02.922Z,100185.88
2022-10-22T09:58:11.543Z,100195.13
2022-10-22T10:01:38.684Z,100191.78
2022-10-22T10:04:51.015Z,100200.78
2022-10-22T10:07:54.969Z,100196.69
2022-10-22T10:11:06.072Z,100201.78
2022-10-22T10:14:32.702Z,100203.91
2022-10-22T10:17:43.614Z,100190.69
2022-10-22T10:20:58.781Z,100193.06
2022-10-22T10:24:02.949Z,100191.03
2022-10-22T10:27:20.079Z,100185.31
2022-10-22T10:30:24.604Z,100198.28
2022-10-22T10:33:52.794Z,100196.88
2022-10-22T10:37:19.057Z,100196.25
2022-10-22T10:40:48.150Z,100201.19
2022-10-22T10:44:17.104Z,100200.56
2022-10-22T10:47:30.207Z,100196.16
2022-10-22T10:50:52.267Z,100191.97
2022-10-22T10:54:19.318Z,100198.44
2022-10-22T10:57:38.481Z,100203.69
2022-10-22T11:01:08.758Z,100194.78
2022-10-22T11:04:24.486Z,100209.97
2022-10-22T11:07:36.769Z,100202.97
2022-10-22T11:10:47.423Z,100212.00
2022-10-22T11:14:07.704Z,100211.19
2022-10-22T11:17:14.867Z,100207.06
2022-10-22T11:20:25.741Z,100207.03
2022-10-22T11:24:00.805Z,100208.97
2022-10-22T11:27:08.571Z,100203.56
2022-10-22T11:30:15.146Z,100212.63
2022-10-22T11:33:24.574Z,100211.63
2022-10-22T11:36:29.566Z,100209.41
2022-10-22T11:39:51.096Z,100210.38
2022-10-22T11:42:58.649Z,100210.09
2022-10-22T11:46:25.305Z,100206.72
2022-10-22T11:50:05.839Z,100205.16
2022-10-22T11:53:13.182Z,100210.44
2022-10-22T11:56:26.648Z,100205.28
2022-10-22T11:59:39.347Z,100212.03
2022-10-22T12:02:45.230Z,100206.53
2022-10-22T12:06:11.687Z,100215.88
2022-10-22T12:09:19.705Z,100218.13
2022-10-22T12:12:23.663Z,100217.44
2022-10-22T12:15:28.113Z,100229.56
2022-10-22T12:18:42.587Z,100225.88
2022-10-22T12:21:57.085Z,100225.72
2022-10-22T12:25:06.074Z,100221.16
2022-10-22T12:28:13.062Z,100220.13
2022-10-22T12:31:17.250Z,100221.09
2022-10-22T12:34:23.533Z,100227.34
2022-10-22T12:37:29.376Z,100220.88
2022-10-22T12:40:36.288Z,100221.09
2022-10-22T12:43:39.993Z,100228.88
2022-10-22T12:46:46.824Z,100221.56
2022-10-22T12:49:50.807Z,100230.19
2022-10-22T12:52:55.733Z,100234.50
2022-10-22T12:56:02.680Z,100216.53
2022-10-22T12:59:17.991Z,100222.50
2022-10-22T13:02:24.713Z,100214.78
2022-10-22T13:05:38.722Z,100219.56
2022-10-22T13:08:42.750Z,100225.13
2022-10-22T13:12:04.574Z,100226.91
2022-10-22T13:15:30.029Z,100223.91
2022-10-22T13:18:33.993Z,100218.56
2022-10-22T13:21:39.170Z,100212.38
2022-10-22T13:24:50.124Z,100220.13
2022-10-22T13:27:58.654Z,100216.84
2022-10-22T13:31:15.809Z,100212.00
2022-10-22T13:34:22.234Z,100220.47
2022-10-22T13:37:27.855Z,100219.09
2022-10-22T13:40:32.039Z,100227.63
2022-10-22T13:43:35.859Z,100234.34
2022-10-22T13:46:42.873Z,100237.34
2022-10-22T13:49:47.594Z,100233.44
2022-10-22T13:52:55.189Z,100234.00
2022-10-22T13:55:59.177Z,100232.09
2022-10-22T13:59:03.517Z,100229.00
2022-10-22T14:02:14.063Z,100229.44
2022-10-22T14:05:19.793Z,100236.13
2022-10-22T14:08:25.928Z,100232.81
2022-10-22T14:11:32.745Z,100227.91
2022-10-22T14:14:38.230Z,100231.81
2022-10-22T14:17:46.337Z,100231.44
2022-10-22T14:20:52.363Z,100234.22
2022-10-22T14:23:56.413Z,100241.38
2022-10-22T14:27:00.686Z,100246.09
2022-10-22T14:30:05.546Z,100242.13
2022-10-22T14:33:18.930Z,100239.16
2022-10-22T14:36:22.831Z,100239.09
2022-10-22T14:39:26.936Z,100240.13
2022-10-22T14:42:31.388Z,100247.81
2022-10-22T14:45:35.188Z,100252.78
2022-10-22T14:48:39.375Z,100259.53
2022-10-22T14:51:43.335Z,100258.72
2022-10-22T14:54:48.844Z,100268.63
2022-10-22T14:57:53.905Z,100267.03
2022-10-22T15:00:58.416Z,100269.25
2022-10-22T15:04:02.174Z,100273.84
2022-10-22T15:07:06.291Z,100277.44
2022-10-22T15:10:10.604Z,100280.44
2022-10-22T15:13:14.730Z,100275.53
2022-10-22T15:16:19.014Z,100281.88
2022-10-22T15:19:22.968Z,100284.44
2022-10-22T15:22:28.381Z,100280.16
2022-10-22T15:25:32.453Z,100283.53
2022-10-22T15:28:38.152Z,100287.88
2022-10-22T15:31:48.459Z,100287.44
2022-10-22T15:34:54.606Z,100295.75
2022-10-22T15:37:58.847Z,100300.88
2022-10-22T15:41:08.585Z,100300.28
2022-10-22T15:44:24.345Z,100293.59
2022-10-22T15:47:29.698Z,100308.75
2022-10-22T15:50:38.029Z,100308.75
2022-10-22T15:53:42.226Z,100308.56
2022-10-22T15:56:47.322Z,100318.22
2022-10-22T15:59:52.057Z,100314.47
2022-10-22T16:02:55.978Z,100314.66
2022-10-22T16:05:59.904Z,100324.72
2022-10-22T16:09:07.735Z,100317.41
2022-10-22T16:12:13.192Z,100323.72
2022-10-22T16:15:19.352Z,100313.69
2022-10-22T16:18:23.674Z,100319.97
2022-10-22T16:21:28.382Z,100315.03
2022-10-22T16:24:32.320Z,100316.00
2022-10-22T16:27:36.228Z,100324.84
2022-10-22T16:30:41.573Z,100329.91
2022-10-22T16:33:49.919Z,100338.97
2022-10-22T16:36:56.209Z,100355.06
2022-10-22T16:40:03.138Z,100353.84
2022-10-22T16:43:09.890Z,100360.69
2022-10-22T16:46:15.297Z,100356.13
2022-10-22T16:49:19.285Z,100361.47
2022-10-22T16:52:23.086Z,100361.41
2022-10-22T16:55:26.783Z,100372.81
2022-10-22T16:58:30.858Z,100378.13
2022-10-22T17:01:39.470Z,100376.13
2022-10-22T17:04:44.759Z,100376.84
2022-10-22T17:07:49.521Z,100380.34
2022-10-22T17:10:53.257Z,100381.53
2022-10-22T17:13:57.015Z,100385.84
2022-10-22T17:17:01.075Z,100384.28
2022-10-22T17:20:06.055Z,100388.56
2022-10-22T17:23:10.347Z,100386.41
2022-10-22T17:26:20.792Z,100400.50
2022-10-22T17:29:25.260Z,100415.44
2022-10-22T17:32:29.739Z,100411.84
2022-10-22T17:35:35.154Z,100417.56
2022-10-22T17:38:42.975Z,100405.41
2022-10-22T17:41:47.096Z,100410.50
2022-10-22T17:44:51.438Z,100416.56
2022-10-22T17:47:57.167Z,100416.94
2022-10-22T17:51:01.154Z,100416.53
2022-10-22T17:54:07.498Z,100426.53
2022-10-22T17:57:13.907Z,100425.97
2022-10-22T18:03:28.442Z,100424.19
2022-10-22T18:06:32.548Z,100422.63
2022-10-22T18:09:36.368Z,100419.84
2022-10-22T18:12:40.820Z,100429.72
2022-10-22T18:15:44.953Z,100440.91
2022-10-22T18:18:51.263Z,100441.09
2022-10-22T18:21:55.455Z,100437.94
2022-10-22T18:24:59.605Z,100438.13
2022-10-22T18:28:03.677Z,100441.22
2022-10-22T18:31:09.991Z,100449.41
2022-10-22T18:34:14.109Z,100448.03
2022-10-22T18:37:17.838Z,100451.13
2022-10-22T18:40:21.728Z,100449.38
2022-10-22T18:43:25.686Z,100448.41
2022-10-22T18:46:31.086Z,100448.81
2022-10-22T18:49:35.349Z,100449.25
2022-10-22T18:52:39.646Z,100445.88
2022-10-22T18:55:44.536Z,100444.66
2022-10-22T18:58:49.453Z,100454.88
2022-10-22T19:01:54.981Z,100453.69
2022-10-22T19:04:58.793Z,100455.00
2022-10-22T19:08:03.709Z,100462.63
2022-10-22T19:11:13.914Z,100457.44
2022-10-22T19:14:19.511Z,100457.97
2022-10-22T19:17:23.524Z,100462.84
2022-10-22T19:20:27.312Z,100455.88
2022-10-22T19:23:31.649Z,100463.13
2022-10-22T19:26:36.005Z,100459.31
2022-10-22T19:29:40.231Z,100469.91
2022-10-22T19:32:44.591Z,100462.59
2022-10-22T19:35:48.553Z,100478.28
2022-10-22T19:38:53.503Z,100474.47
2022-10-22T19:41:57.892Z,100481.34
2022-10-22T19:45:01.951Z,100483.28
2022-10-22T19:48:06.369Z,100492.06
2022-10-22T19:51:16.447Z,100487.34
2022-10-22T19:54:20.754Z,100491.66
2022-10-22T19:57:24.893Z,100500.44
2022-10-22T20:00:29.379Z,100498.06
2022-10-22T20:03:33.137Z,100506.25
2022-10-22T20:06:37.041Z,100506.78
2022-10-22T20:09:40.913Z,100510.81
2022-10-22T20:12:45.092Z,100515.66
2022-10-22T20:15:49.968Z,100519.31
2022-10-22T20:18:54.188Z,100526.00
2022-10-22T20:25:04.135Z,100530.59
2022-10-22T20:28:08.717Z,100539.03
2022-10-22T20:31:15.936Z,100531.63
2022-10-22T20:34:20.401Z,100534.88
2022-10-22T20:37:24.609Z,100545.13
2022-10-22T20:40:30.380Z,100537.69
2022-10-22T20:43:34.367Z,100531.34
2022-10-22T20:46:38.857Z,100533.28
2022-10-22T20:49:43.134Z,100541.44
2022-10-22T20:52:48.577Z,100542.72
2022-10-22T20:55:56.605Z,100544.22
2022-10-22T20:59:08.074Z,100542.34
2022-10-22T21:02:12.704Z,100542.84
2022-10-22T21:05:16.527Z,100561.38
2022-10-22T21:08:20.453Z,100557.41
2022-10-22T21:11:24.212Z,100560.31
2022-10-22T21:14:30.011Z,100550.88
2022-10-22T21:17:33.994Z,100547.75
2022-10-22T21:20:41.404Z,100547.38
2022-10-22T21:23:45.782Z,100559.31
2022-10-22T21:26:49.427Z,100559.50
2022-10-22T21:29:53.156Z,100564.28
2022-10-22T21:32:58.002Z,100551.25
2022-10-22T21:36:01.975Z,100552.44
2022-10-22T21:39:07.085Z,100550.03
2022-10-22T21:42:10.975Z,100548.09
2022-10-22T21:45:17.498Z,100543.19
2022-10-22T21:48:23.710Z,100539.22
2022-10-22T21:51:28.922Z,100548.19
2022-10-22T21:54:35.613Z,100545.34
2022-10-22T21:57:39.729Z,100547.25
2022-10-22T22:00:54.084Z,100531.31
2022-10-22T22:03:59.042Z,100545.03
2022-10-22T22:07:03.077Z,100545.38
2022-10-22T22:10:07.639Z,100539.78
2022-10-22T22:13:11.876Z,100545.25
2022-10-22T22:16:21.275Z,100553.38
2022-10-22T22:19:27.792Z,100563.09
2022-10-22T22:22:31.573Z,100563.09
2022-10-22T22:25:35.392Z,100557.50
2022-10-22T22:28:40.096Z,100550.34
2022-10-22T22:31:45.844Z,100562.59
2022-10-22T22:34:49.870Z,100556.25
2022-10-22T22:37:53.615Z,100555.59
2022-10-22T22:41:01.167Z,100568.38
2022-10-22T22:44:05.389Z,100570.13
2022-10-22T22:47:09.562Z,100569.84
2022-10-22T22:50:13.338Z,100567.47
2022-10-22T22:53:17.170Z,100565.72
2022-10-22T22:56:23.992Z,100564.91
2022-10-22T22:59:28.040Z,100574.47
2022-10-22T23:02:32.491Z,100574.78
2022-10-22T23:05:37.638Z,100568.13
2022-10-22T23:08:42.487Z,100567.03
2022-10-22T23:11:47.289Z,100559.81
2022-10-22T23:14:53.949Z,100564.28
2022-10-22T23:17:57.792Z,100568.28
2022-10-22T23:21:13.086Z,100566.69
2022-10-22T23:24:20.046Z,100559.06
2022-10-22T23:27:23.750Z,100567.47
2022-10-22T23:30:27.672Z,100552.56
2022-10-22T23:33:31.679Z,100554.75
2022-10-22T23:36:37.054Z,100555.75
2022-10-22T23:39:40.701Z,100547.47
2022-10-22T23:42:44.828Z,100547.63
2022-10-22T23:45:48.875Z,100549.09
2022-10-22T23:48:53.803Z,100548.94
2022-10-22T23:51:57.718Z,100549.41
2022-10-22T23:55:01.488Z,100541.16
2022-10-22T23:58:05.689Z,100542.09
